Time;durP1;ratioP1;P1;durP2;ratioP2;P2;SDS_P1;SDS_P2;PMS_P1;PMS_P2;Temp;Humidity;BMP_temperature;BMP_pressure;BME280_temperature;BME280_humidity;BME280_pressure;Samples;Min_cycle;Max_cycle;Signal;HPM_P1;HPM_P2
2022/05/18 00:01:16;;;;;;;0.20;0.20;;;;;;;;;;1828609;78;26274;-50
2022/05/18 00:03:44;;;;;;;0.30;0.30;;;;;;;;;;1828443;78;26294;-55
2022/05/18 00:06:12;;;;;;;0.20;0.20;;;;;;;;;;1825988;78;26706;-58
2022/05/18 00:08:40;;;;;;;0.30;0.13;;;;;;;;;;1828371;78;26349;-58
2022/05/18 00:11:09;;;;;;;0.13;0.13;;;;;;;;;;1827359;77;26318;-56
2022/05/18 00:13:36;;;;;;;0.40;0.40;;;;;;;;;;1827578;78;26282;-57
2022/05/18 00:16:04;;;;;;;0.30;0.30;;;;;;;;;;1828019;78;26351;-57
2022/05/18 00:18:31;;;;;;;0.17;0.17;;;;;;;;;;1794072;79;26356;-51
2022/05/18 00:21:00;;;;;;;0.10;0.10;;;;;;;;;;1816394;78;26279;-57
2022/05/18 00:23:28;;;;;;;1.20;0.23;;;;;;;;;;1791422;79;26647;-58
2022/05/18 00:25:55;;;;;;;0.20;0.20;;;;;;;;;;1825470;78;26278;-57
2022/05/18 00:28:23;;;;;;;0.30;0.30;;;;;;;;;;1795410;79;26774;-53
2022/05/18 00:30:51;;;;;;;0.57;0.20;;;;;;;;;;1828875;78;26349;-54
2022/05/18 00:33:19;;;;;;;0.30;0.30;;;;;;;;;;1792579;79;26862;-56
2022/05/18 00:35:46;;;;;;;0.15;0.15;;;;;;;;;;1817744;78;26333;-52
2022/05/18 00:38:13;;;;;;;0.20;0.20;;;;;;;;;;1828316;78;26393;-56
2022/05/18 00:40:42;;;;;;;0.20;0.20;;;;;;;;;;1827333;78;26219;-49
2022/05/18 00:43:20;;;;;;;0.40;0.40;;;;;;;;;;1793378;79;26317;-54
2022/05/18 00:45:47;;;;;;;0.30;0.30;;;;;;;;;;1828236;78;26274;-54
2022/05/18 00:48:14;;;;;;;0.20;0.20;;;;;;;;;;1788306;79;26900;-55
2022/05/18 00:50:42;;;;;;;0.10;0.10;;;;;;;;;;1820722;78;26341;-57
2022/05/18 00:53:20;;;;;;;0.20;0.20;;;;;;;;;;1775276;79;26362;-57
2022/05/18 00:55:58;;;;;;;0.20;0.20;;;;;;;;;;1820123;78;26282;-54
2022/05/18 00:58:26;;;;;;;0.30;0.30;;;;;;;;;;1820564;77;26283;-57
2022/05/18 01:00:54;;;;;;;0.20;0.20;;;;;;;;;;1819313;78;26298;-56
2022/05/18 01:03:23;;;;;;;0.20;0.20;;;;;;;;;;1820120;78;26385;-58
2022/05/18 01:05:51;;;;;;;0.15;0.15;;;;;;;;;;1818369;78;26283;-55
2022/05/18 01:08:23;;;;;;;0.15;0.15;;;;;;;;;;1820821;78;26329;-56
2022/05/18 01:10:50;;;;;;;0.20;0.20;;;;;;;;;;1811105;77;26314;-56
2022/05/18 01:13:17;;;;;;;0.20;0.20;;;;;;;;;;1821565;78;26333;-57
2022/05/18 01:15:46;;;;;;;1.52;0.20;;;;;;;;;;1802513;78;26328;-49
2022/05/18 01:18:13;;;;;;;0.17;0.17;;;;;;;;;;1808164;79;26358;-51
2022/05/18 01:20:42;;;;;;;0.10;0.10;;;;;;;;;;1811166;78;26294;-58
2022/05/18 01:23:15;;;;;;;0.20;0.20;;;;;;;;;;1820877;78;26299;-58
2022/05/18 01:26:02;;;;;;;0.20;0.20;;;;;;;;;;1821206;78;26298;-51
2022/05/18 01:28:36;;;;;;;0.20;0.20;;;;;;;;;;1787270;79;26322;-58
2022/05/18 01:31:04;;;;;;;0.20;0.20;;;;;;;;;;1785282;79;26335;-56
2022/05/18 01:33:32;;;;;;;0.45;0.30;;;;;;;;;;1821176;78;26341;-56
2022/05/18 01:36:00;;;;;;;0.20;0.20;;;;;;;;;;1819542;78;26279;-53
2022/05/18 01:38:27;;;;;;;0.20;0.20;;;;;;;;;;1790108;79;26309;-57
2022/05/18 01:40:59;;;;;;;1.12;0.20;;;;;;;;;;1818362;78;26271;-55
2022/05/18 01:43:44;;;;;;;0.13;0.13;;;;;;;;;;1819132;78;26312;-52
2022/05/18 01:46:13;;;;;;;0.20;0.20;;;;;;;;;;1816822;78;26327;-53
2022/05/18 01:48:42;;;;;;;0.10;0.10;;;;;;;;;;1792780;79;26345;-54
2022/05/18 01:51:11;;;;;;;0.10;0.10;;;;;;;;;;1822285;78;26353;-51
2022/05/18 01:53:38;;;;;;;0.30;0.20;;;;;;;;;;1820348;78;26727;-54
2022/05/18 01:56:08;;;;;;;0.13;0.13;;;;;;;;;;1820528;78;26272;-53
2022/05/18 01:58:35;;;;;;;0.30;0.30;;;;;;;;;;1823717;78;26317;-54
2022/05/18 02:01:03;;;;;;;0.10;0.10;;;;;;;;;;1812153;79;26266;-57
2022/05/18 02:03:31;;;;;;;0.20;0.20;;;;;;;;;;1807570;79;26346;-53
2022/05/18 02:05:59;;;;;;;0.25;0.25;;;;;;;;;;1813801;79;26286;-51
2022/05/18 02:08:26;;;;;;;1.17;0.30;;;;;;;;;;1794302;78;26902;-55
2022/05/18 02:10:53;;;;;;;0.30;0.30;;;;;;;;;;1793243;79;26789;-53
2022/05/18 02:13:21;;;;;;;0.17;0.10;;;;;;;;;;1820876;78;27372;-54
2022/05/18 02:15:48;;;;;;;0.20;0.20;;;;;;;;;;1798532;79;26279;-52
2022/05/18 02:18:15;;;;;;;0.10;0.10;;;;;;;;;;1795198;79;26377;-53
2022/05/18 02:20:43;;;;;;;0.10;0.10;;;;;;;;;;1807113;79;26779;-54
2022/05/18 02:23:10;;;;;;;0.37;0.10;;;;;;;;;;1803910;79;26282;-57
2022/05/18 02:25:38;;;;;;;0.17;0.17;;;;;;;;;;1802496;78;25725;-53
2022/05/18 02:28:05;;;;;;;0.10;0.10;;;;;;;;;;1804932;79;26366;-56
2022/05/18 02:30:33;;;;;;;0.23;0.23;;;;;;;;;;1803756;79;26267;-54
2022/05/18 02:33:00;;;;;;;0.20;0.20;;;;;;;;;;1802270;78;26783;-55
2022/05/18 02:35:27;;;;;;;0.30;0.30;;;;;;;;;;1784483;80;26282;-51
2022/05/18 02:37:54;;;;;;;0.00;0.00;;;;;;;;;;1819738;78;26268;-49
2022/05/18 02:40:22;;;;;;;0.30;0.30;;;;;;;;;;1820406;78;26294;-55
2022/05/18 02:42:50;;;;;;;0.20;0.20;;;;;;;;;;1789031;79;26686;-57
2022/05/18 02:45:17;;;;;;;0.30;0.30;;;;;;;;;;1808538;78;26283;-54
2022/05/18 02:47:44;;;;;;;0.20;0.20;;;;;;;;;;1794682;78;26748;-54
2022/05/18 02:50:12;;;;;;;0.20;0.20;;;;;;;;;;1796504;78;27322;-57
2022/05/18 02:52:39;;;;;;;0.30;0.30;;;;;;;;;;1793280;79;26317;-56
2022/05/18 02:57:53;;;;;;;0.47;0.13;;;;;;;;;;1787674;79;26793;-56
2022/05/18 03:00:20;;;;;;;0.20;0.20;;;;;;;;;;1825134;78;26329;-52
2022/05/18 03:02:48;;;;;;;0.20;0.20;;;;;;;;;;1810880;79;26803;-56
2022/05/18 03:05:15;;;;;;;0.20;0.20;;;;;;;;;;1815471;77;26873;-56
2022/05/18 03:07:43;;;;;;;0.20;0.20;;;;;;;;;;1817147;79;26827;-58
2022/05/18 03:10:11;;;;;;;0.30;0.30;;;;;;;;;;1815462;77;26529;-58
2022/05/18 03:12:38;;;;;;;0.25;0.20;;;;;;;;;;1800353;79;27853;-57
2022/05/18 03:15:06;;;;;;;0.10;0.10;;;;;;;;;;1815307;79;26371;-57
2022/05/18 03:17:33;;;;;;;0.47;0.30;;;;;;;;;;1816135;79;26845;-55
2022/05/18 03:20:00;;;;;;;0.20;0.20;;;;;;;;;;1816536;77;26830;-57
2022/05/18 03:25:15;;;;;;;0.13;0.13;;;;;;;;;;1825432;78;26310;-56
2022/05/18 03:27:44;;;;;;;0.20;0.20;;;;;;;;;;1820115;77;26364;-55
2022/05/18 03:30:12;;;;;;;0.82;0.40;;;;;;;;;;1818433;79;26255;-54
2022/05/18 03:32:40;;;;;;;0.35;0.35;;;;;;;;;;1817153;79;26271;-56
2022/05/18 03:35:09;;;;;;;0.45;0.45;;;;;;;;;;1814934;79;26302;-57
2022/05/18 03:37:36;;;;;;;1.20;0.20;;;;;;;;;;1816773;79;26312;-53
2022/05/18 03:40:04;;;;;;;1.05;0.40;;;;;;;;;;1814436;79;26932;-55
2022/05/18 03:42:34;;;;;;;0.40;0.40;;;;;;;;;;1814771;79;26294;-52
2022/05/18 03:45:01;;;;;;;0.50;0.50;;;;;;;;;;1815936;79;26337;-52
2022/05/18 03:47:30;;;;;;;0.40;0.40;;;;;;;;;;1813846;79;26283;-58
2022/05/18 03:49:57;;;;;;;0.40;0.40;;;;;;;;;;1812643;79;26414;-56
2022/05/18 03:52:24;;;;;;;0.30;0.30;;;;;;;;;;1807141;79;26270;-53
2022/05/18 03:54:52;;;;;;;1.60;0.60;;;;;;;;;;1812719;79;26283;-55
2022/05/18 03:57:19;;;;;;;0.68;0.68;;;;;;;;;;1809318;79;26323;-57
2022/05/18 03:59:46;;;;;;;0.55;0.55;;;;;;;;;;1808969;79;26287;-55
2022/05/18 04:02:14;;;;;;;0.40;0.40;;;;;;;;;;1810392;78;26349;-54
2022/05/18 04:04:42;;;;;;;3.00;0.55;;;;;;;;;;1812222;79;26318;-57
2022/05/18 04:07:10;;;;;;;2.08;0.53;;;;;;;;;;1813122;79;26291;-56
2022/05/18 04:09:37;;;;;;;0.50;0.50;;;;;;;;;;1813208;78;26314;-52
2022/05/18 04:12:05;;;;;;;2.83;0.42;;;;;;;;;;1813587;79;26286;-55
2022/05/18 04:14:32;;;;;;;0.30;0.30;;;;;;;;;;1811143;79;26263;-53
2022/05/18 04:16:59;;;;;;;1.65;0.53;;;;;;;;;;1813490;79;26787;-58
2022/05/18 04:19:27;;;;;;;0.40;0.40;;;;;;;;;;1790971;79;27401;-55
2022/05/18 04:21:54;;;;;;;0.55;0.55;;;;;;;;;;1816215;77;26278;-53
2022/05/18 04:24:21;;;;;;;1.40;0.60;;;;;;;;;;1820628;78;26273;-54
2022/05/18 04:26:49;;;;;;;0.72;0.50;;;;;;;;;;1808051;78;26227;-54
2022/05/18 04:29:16;;;;;;;1.32;0.60;;;;;;;;;;1804021;78;26403;-50
2022/05/18 04:31:43;;;;;;;2.62;0.60;;;;;;;;;;1785527;80;26286;-54
2022/05/18 04:34:11;;;;;;;1.55;0.60;;;;;;;;;;1785770;80;26313;-51
2022/05/18 04:36:38;;;;;;;0.53;0.50;;;;;;;;;;1791223;80;26357;-54
2022/05/18 04:39:05;;;;;;;3.15;0.60;;;;;;;;;;1788216;78;26283;-57
2022/05/18 04:41:32;;;;;;;0.50;0.50;;;;;;;;;;1820100;78;26299;-54
2022/05/18 04:44:00;;;;;;;1.15;0.50;;;;;;;;;;1820960;78;26362;-55
2022/05/18 04:46:27;;;;;;;1.60;0.50;;;;;;;;;;1822735;78;26325;-53
2022/05/18 04:48:54;;;;;;;0.65;0.57;;;;;;;;;;1821009;78;26287;-51
2022/05/18 04:51:22;;;;;;;1.32;0.50;;;;;;;;;;1809112;78;26320;-51
2022/05/18 04:53:49;;;;;;;0.60;0.60;;;;;;;;;;1805240;79;26315;-55
2022/05/18 04:56:16;;;;;;;0.88;0.50;;;;;;;;;;1811791;79;26270;-51
2022/05/18 04:58:43;;;;;;;0.50;0.50;;;;;;;;;;1786100;79;26414;-53
2022/05/18 05:01:11;;;;;;;1.17;0.60;;;;;;;;;;1845094;77;26329;-52
2022/05/18 05:03:39;;;;;;;0.55;0.55;;;;;;;;;;1841264;77;26225;-54
2022/05/18 05:06:06;;;;;;;0.90;0.90;;;;;;;;;;1810933;79;26730;-51
2022/05/18 05:08:34;;;;;;;3.62;0.78;;;;;;;;;;1809671;79;26303;-53
2022/05/18 05:11:02;;;;;;;0.30;0.30;;;;;;;;;;1811944;78;26381;-53
2022/05/18 05:13:30;;;;;;;0.95;0.65;;;;;;;;;;1806922;79;27396;-56
2022/05/18 05:16:07;;;;;;;1.75;0.65;;;;;;;;;;1806308;79;26275;-50
2022/05/18 05:18:35;;;;;;;1.40;0.50;;;;;;;;;;1806576;78;26302;-53
2022/05/18 05:21:03;;;;;;;1.35;0.53;;;;;;;;;;1788842;79;26378;-52
2022/05/18 05:23:31;;;;;;;0.50;0.50;;;;;;;;;;1816876;78;26362;-57
2022/05/18 05:25:59;;;;;;;1.00;0.50;;;;;;;;;;1817556;79;26794;-54
2022/05/18 05:28:27;;;;;;;0.50;0.50;;;;;;;;;;1779950;79;26267;-55
2022/05/18 05:30:55;;;;;;;0.50;0.50;;;;;;;;;;1810477;79;26425;-53
2022/05/18 05:33:23;;;;;;;0.80;0.40;;;;;;;;;;1812698;78;26344;-55
2022/05/18 05:35:50;;;;;;;1.80;0.50;;;;;;;;;;1781356;80;26287;-56
2022/05/18 05:38:17;;;;;;;0.60;0.40;;;;;;;;;;1846333;77;26271;-55
2022/05/18 05:40:46;;;;;;;0.40;0.40;;;;;;;;;;1810304;79;26275;-55
2022/05/18 05:43:14;;;;;;;0.45;0.45;;;;;;;;;;1808995;79;27271;-54
2022/05/18 05:45:41;;;;;;;4.17;0.50;;;;;;;;;;1810858;78;27160;-51
2022/05/18 05:48:09;;;;;;;0.40;0.40;;;;;;;;;;1812537;79;26378;-55
2022/05/18 05:50:37;;;;;;;2.72;0.40;;;;;;;;;;1811639;79;27681;-52
2022/05/18 05:53:04;;;;;;;1.85;0.60;;;;;;;;;;1811570;78;26265;-51
2022/05/18 05:55:32;;;;;;;0.40;0.40;;;;;;;;;;1811999;79;26353;-51
2022/05/18 05:57:59;;;;;;;0.50;0.50;;;;;;;;;;1811576;79;26366;-47
2022/05/18 06:00:26;;;;;;;2.25;0.70;;;;;;;;;;1811743;79;26279;-47
2022/05/18 06:02:54;;;;;;;2.95;0.60;;;;;;;;;;1808882;79;26935;-46
2022/05/18 06:05:21;;;;;;;4.70;0.70;;;;;;;;;;1813626;79;26779;-45
2022/05/18 06:07:48;;;;;;;0.62;0.62;;;;;;;;;;1811339;79;27533;-49
2022/05/18 06:10:16;;;;;;;3.45;0.70;;;;;;;;;;1804049;78;26895;-47
2022/05/18 06:12:43;;;;;;;0.50;0.50;;;;;;;;;;1812193;79;26327;-48
2022/05/18 06:15:11;;;;;;;0.65;0.65;;;;;;;;;;1802398;79;26783;-49
2022/05/18 06:17:38;;;;;;;2.80;0.78;;;;;;;;;;1806411;78;26764;-51
2022/05/18 06:20:07;;;;;;;3.52;0.65;;;;;;;;;;1806704;79;26649;-46
2022/05/18 06:22:34;;;;;;;1.07;0.68;;;;;;;;;;1807289;79;26263;-46
2022/05/18 06:25:01;;;;;;;2.17;0.80;;;;;;;;;;1806007;79;26301;-50
2022/05/18 06:27:29;;;;;;;1.50;0.50;;;;;;;;;;1805269;79;26755;-47
2022/05/18 06:29:56;;;;;;;0.80;0.80;;;;;;;;;;1805341;79;26819;-50
2022/05/18 06:32:23;;;;;;;0.50;0.50;;;;;;;;;;1804510;78;26739;-53
2022/05/18 06:34:50;;;;;;;2.83;0.72;;;;;;;;;;1811792;79;27501;-54
2022/05/18 06:37:18;;;;;;;0.98;0.62;;;;;;;;;;1808575;79;26680;-55
2022/05/18 06:39:45;;;;;;;2.02;0.80;;;;;;;;;;1812374;78;26369;-54
2022/05/18 06:42:12;;;;;;;0.68;0.68;;;;;;;;;;1780218;79;26304;-56
2022/05/18 06:44:39;;;;;;;0.60;0.60;;;;;;;;;;1813087;79;26348;-54
2022/05/18 06:47:07;;;;;;;0.60;0.60;;;;;;;;;;1809398;79;26361;-54
2022/05/18 06:49:35;;;;;;;0.57;0.50;;;;;;;;;;1811346;79;26279;-54
2022/05/18 06:52:02;;;;;;;2.45;0.60;;;;;;;;;;1812607;78;26365;-53
2022/05/18 06:54:29;;;;;;;0.60;0.60;;;;;;;;;;1812777;79;26857;-53
2022/05/18 06:56:56;;;;;;;0.60;0.60;;;;;;;;;;1813050;79;26271;-54
2022/05/18 06:59:24;;;;;;;0.75;0.50;;;;;;;;;;1805276;79;26379;-50
2022/05/18 07:01:51;;;;;;;0.55;0.55;;;;;;;;;;1849573;77;26557;-52
2022/05/18 07:04:18;;;;;;;0.60;0.60;;;;;;;;;;1845214;77;26267;-47
2022/05/18 07:06:46;;;;;;;0.60;0.60;;;;;;;;;;1849524;77;26212;-51
2022/05/18 07:09:15;;;;;;;1.45;0.68;;;;;;;;;;1847734;77;26706;-58
2022/05/18 07:11:43;;;;;;;0.85;0.50;;;;;;;;;;1811314;79;26793;-56
2022/05/18 07:14:12;;;;;;;0.50;0.50;;;;;;;;;;1804992;78;25724;-50
2022/05/18 07:16:40;;;;;;;0.50;0.50;;;;;;;;;;1813634;79;26330;-49
2022/05/18 07:19:07;;;;;;;0.40;0.40;;;;;;;;;;1811783;79;26330;-56
2022/05/18 07:21:35;;;;;;;0.60;0.60;;;;;;;;;;1848253;77;26280;-46
2022/05/18 07:24:02;;;;;;;0.70;0.70;;;;;;;;;;1846924;76;26362;-53
2022/05/18 07:26:30;;;;;;;0.57;0.57;;;;;;;;;;1845879;77;26252;-50
2022/05/18 07:28:58;;;;;;;1.87;0.70;;;;;;;;;;1806692;79;26382;-51
2022/05/18 07:31:26;;;;;;;1.47;0.50;;;;;;;;;;1850055;77;26253;-51
2022/05/18 07:33:53;;;;;;;0.62;0.60;;;;;;;;;;1846361;77;26268;-52
2022/05/18 07:36:21;;;;;;;1.60;0.62;;;;;;;;;;1810355;79;26294;-52
2022/05/18 07:38:48;;;;;;;3.87;0.88;;;;;;;;;;1813208;79;26354;-50
2022/05/18 07:41:17;;;;;;;4.58;0.80;;;;;;;;;;1799733;79;28247;-64
2022/05/18 07:43:44;;;;;;;9.60;1.10;;;;;;;;;;1813224;79;26295;-53
2022/05/18 07:46:12;;;;;;;3.60;0.95;;;;;;;;;;1815108;78;26263;-53
2022/05/18 07:48:40;;;;;;;4.12;0.90;;;;;;;;;;1808666;78;26262;-51
2022/05/18 07:51:09;;;;;;;5.33;0.75;;;;;;;;;;1813927;78;26887;-46
2022/05/18 07:53:36;;;;;;;13.18;1.12;;;;;;;;;;1804652;78;26303;-50
2022/05/18 07:56:05;;;;;;;4.45;0.80;;;;;;;;;;1803419;79;26295;-53
2022/05/18 07:58:32;;;;;;;3.40;0.80;;;;;;;;;;1800925;79;28516;-46
2022/05/18 08:01:00;;;;;;;5.95;1.10;;;;;;;;;;1787684;79;26378;-45
2022/05/18 08:03:27;;;;;;;10.13;1.37;;;;;;;;;;1819963;78;26294;-48
2022/05/18 08:05:55;;;;;;;5.62;0.93;;;;;;;;;;1819657;78;26695;-52
2022/05/18 08:08:23;;;;;;;11.88;1.40;;;;;;;;;;1818873;78;26259;-51
2022/05/18 08:16:21;;;;;;;6.08;1.10;;;;;;;;;;1812476;79;26909;-52
2022/05/18 08:18:49;;;;;;;7.72;0.98;;;;;;;;;;1812594;79;26648;-49
2022/05/18 08:21:17;;;;;;;2.42;0.90;;;;;;;;;;1810769;79;26345;-49
2022/05/18 08:23:44;;;;;;;3.02;0.90;;;;;;;;;;1810043;78;26290;-52
2022/05/18 08:26:12;;;;;;;5.40;0.90;;;;;;;;;;1812145;79;26342;-55
2022/05/18 08:28:40;;;;;;;6.10;0.88;;;;;;;;;;1807842;79;26322;-53
2022/05/18 08:31:07;;;;;;;1.20;0.72;;;;;;;;;;1813398;79;26357;-50
2022/05/18 08:33:35;;;;;;;3.60;0.90;;;;;;;;;;1812286;79;26215;-55
2022/05/18 08:36:03;;;;;;;3.35;0.90;;;;;;;;;;1812242;79;26216;-53
2022/05/18 08:38:31;;;;;;;2.87;0.80;;;;;;;;;;1811403;79;26272;-59
2022/05/18 08:41:00;;;;;;;8.53;1.20;;;;;;;;;;1811040;79;26287;-57
2022/05/18 08:43:32;;;;;;;4.55;0.82;;;;;;;;;;1811225;78;26276;-50
2022/05/18 08:46:06;;;;;;;3.22;0.80;;;;;;;;;;1806990;79;26330;-52
2022/05/18 08:48:44;;;;;;;1.90;0.70;;;;;;;;;;1813554;79;26363;-49
2022/05/18 08:51:13;;;;;;;5.25;0.70;;;;;;;;;;1812355;79;26824;-47
2022/05/18 08:53:41;;;;;;;1.05;0.70;;;;;;;;;;1805029;79;26813;-55
2022/05/18 08:56:11;;;;;;;2.22;0.70;;;;;;;;;;1805674;79;26775;-57
2022/05/18 08:58:42;;;;;;;2.90;0.95;;;;;;;;;;1806316;79;26341;-58
2022/05/18 09:01:11;;;;;;;3.67;0.80;;;;;;;;;;1807362;79;26287;-60
2022/05/18 09:03:43;;;;;;;0.95;0.78;;;;;;;;;;1806674;79;26380;-58
2022/05/18 09:06:18;;;;;;;2.60;0.82;;;;;;;;;;1806916;79;26751;-56
2022/05/18 09:08:47;;;;;;;3.95;0.90;;;;;;;;;;1798424;79;26782;-54
2022/05/18 09:11:15;;;;;;;1.52;0.70;;;;;;;;;;1804996;79;26369;-57
2022/05/18 09:13:43;;;;;;;2.20;0.70;;;;;;;;;;1805473;79;26334;-54
2022/05/18 09:16:12;;;;;;;2.90;0.80;;;;;;;;;;1804999;79;26284;-56
2022/05/18 09:18:40;;;;;;;1.62;0.80;;;;;;;;;;1806181;79;26282;-49
2022/05/18 09:21:18;;;;;;;0.53;0.50;;;;;;;;;;1807940;79;26280;-46
2022/05/18 09:23:50;;;;;;;1.95;0.72;;;;;;;;;;1798106;78;26330;-51
2022/05/18 09:26:19;;;;;;;0.68;0.62;;;;;;;;;;1806960;79;26818;-45
2022/05/18 09:29:04;;;;;;;2.80;0.70;;;;;;;;;;1797837;79;26377;-49
2022/05/18 09:31:49;;;;;;;0.78;0.78;;;;;;;;;;1797864;79;26333;-48
2022/05/18 09:34:20;;;;;;;0.78;0.70;;;;;;;;;;1808002;79;26295;-58
2022/05/18 09:36:52;;;;;;;1.32;0.82;;;;;;;;;;1787759;79;26273;-58
2022/05/18 09:39:21;;;;;;;3.52;1.00;;;;;;;;;;1845963;77;26301;-56
2022/05/18 09:41:53;;;;;;;0.85;0.75;;;;;;;;;;1844841;77;26271;-57
2022/05/18 09:44:38;;;;;;;1.47;0.78;;;;;;;;;;1811202;79;26287;-54
2022/05/18 09:47:06;;;;;;;1.00;0.90;;;;;;;;;;1785224;78;26280;-52
2022/05/18 09:49:38;;;;;;;2.60;0.80;;;;;;;;;;1804653;79;26281;-50
2022/05/18 09:52:06;;;;;;;1.80;0.70;;;;;;;;;;1798840;79;26331;-56
2022/05/18 09:54:34;;;;;;;1.45;0.72;;;;;;;;;;1805219;79;26271;-57
2022/05/18 09:57:04;;;;;;;0.70;0.70;;;;;;;;;;1803983;78;26814;-51
2022/05/18 09:59:35;;;;;;;0.57;0.57;;;;;;;;;;1768966;79;26310;-51
2022/05/18 10:07:45;;;;;;;0.90;0.90;;;;;;;;;;1789348;79;26367;-49
2022/05/18 10:10:29;;;;;;;0.80;0.80;;;;;;;;;;1801523;78;26331;-50
2022/05/18 10:12:58;;;;;;;2.90;0.80;;;;;;;;;;1801574;79;26280;-53
2022/05/18 10:15:27;;;;;;;0.78;0.78;;;;;;;;;;1805996;79;26377;-43
2022/05/18 10:17:56;;;;;;;0.75;0.75;;;;;;;;;;1801056;79;26914;-46
2022/05/18 10:20:29;;;;;;;0.70;0.70;;;;;;;;;;1797638;79;26314;-46
2022/05/18 10:22:57;;;;;;;0.62;0.62;;;;;;;;;;1797653;79;26282;-46
2022/05/18 10:25:37;;;;;;;0.55;0.53;;;;;;;;;;1802335;79;26311;-57
2022/05/18 10:28:07;;;;;;;0.70;0.70;;;;;;;;;;1788283;80;26979;-55
2022/05/18 10:30:36;;;;;;;0.70;0.70;;;;;;;;;;1812971;79;26291;-55
2022/05/18 10:33:07;;;;;;;0.80;0.80;;;;;;;;;;1808580;79;26302;-51
2022/05/18 10:35:39;;;;;;;0.60;0.60;;;;;;;;;;1802937;79;26790;-49
2022/05/18 10:38:26;;;;;;;0.70;0.70;;;;;;;;;;1797947;79;26531;-49
2022/05/18 10:40:58;;;;;;;0.70;0.70;;;;;;;;;;1780280;80;26424;-53
2022/05/18 10:43:29;;;;;;;1.45;0.78;;;;;;;;;;1815476;79;26313;-50
2022/05/18 10:45:58;;;;;;;0.75;0.75;;;;;;;;;;1799790;79;26854;-50
2022/05/18 10:48:30;;;;;;;0.65;0.65;;;;;;;;;;1812978;78;26280;-50
2022/05/18 10:51:06;;;;;;;0.72;0.72;;;;;;;;;;1811165;77;26318;-52
2022/05/18 10:53:38;;;;;;;0.62;0.60;;;;;;;;;;1821428;77;26914;-48
2022/05/18 10:56:08;;;;;;;0.85;0.70;;;;;;;;;;1822824;77;26314;-51
2022/05/18 10:58:43;;;;;;;0.70;0.70;;;;;;;;;;1822613;78;26262;-50
2022/05/18 11:01:15;;;;;;;0.60;0.60;;;;;;;;;;1820559;78;26389;-48
2022/05/18 11:04:00;;;;;;;0.60;0.60;;;;;;;;;;1818722;77;26894;-45
2022/05/18 11:06:38;;;;;;;1.12;0.50;;;;;;;;;;1819721;78;26306;-47
2022/05/18 11:09:06;;;;;;;0.60;0.60;;;;;;;;;;1813871;77;26776;-47
2022/05/18 11:11:41;;;;;;;0.70;0.70;;;;;;;;;;1820831;78;26326;-46
2022/05/18 11:14:13;;;;;;;0.60;0.60;;;;;;;;;;1820759;78;26365;-47
2022/05/18 11:16:42;;;;;;;0.65;0.62;;;;;;;;;;1811235;78;26723;-58
2022/05/18 11:19:16;;;;;;;0.70;0.70;;;;;;;;;;1821749;78;26326;-50
2022/05/18 11:21:48;;;;;;;0.60;0.60;;;;;;;;;;1815721;78;26719;-51
2022/05/18 11:24:17;;;;;;;0.60;0.60;;;;;;;;;;1768410;80;26388;-48
2022/05/18 11:27:01;;;;;;;0.60;0.60;;;;;;;;;;1806212;79;26874;-51
2022/05/18 11:29:39;;;;;;;0.55;0.55;;;;;;;;;;1823126;78;26369;-51
2022/05/18 11:32:11;;;;;;;0.55;0.55;;;;;;;;;;1796731;78;26409;-49
2022/05/18 11:34:43;;;;;;;0.68;0.68;;;;;;;;;;1820815;78;26902;-54
2022/05/18 11:37:12;;;;;;;0.60;0.60;;;;;;;;;;1821490;78;27442;-56
2022/05/18 11:39:47;;;;;;;0.60;0.60;;;;;;;;;;1822018;77;26892;-49
2022/05/18 11:42:22;;;;;;;0.50;0.50;;;;;;;;;;1821257;78;26585;-56
2022/05/18 11:45:06;;;;;;;0.60;0.60;;;;;;;;;;1785687;80;26376;-46
2022/05/18 11:47:38;;;;;;;0.40;0.40;;;;;;;;;;1821477;78;26808;-51
2022/05/18 11:50:22;;;;;;;0.50;0.50;;;;;;;;;;1822182;78;26342;-46
2022/05/18 11:52:56;;;;;;;0.60;0.60;;;;;;;;;;1819550;78;26283;-54
2022/05/18 11:55:31;;;;;;;0.55;0.55;;;;;;;;;;1779441;79;26330;-50
2022/05/18 11:58:00;;;;;;;0.55;0.55;;;;;;;;;;1797818;79;26747;-49
2022/05/18 12:03:08;;;;;;;0.70;0.70;;;;;;;;;;1842276;77;26279;-48
2022/05/18 12:05:52;;;;;;;0.57;0.57;;;;;;;;;;1811835;79;26344;-49
2022/05/18 12:08:27;;;;;;;0.53;0.53;;;;;;;;;;1815478;79;26272;-42
2022/05/18 12:10:56;;;;;;;0.60;0.60;;;;;;;;;;1806973;79;26306;-43
2022/05/18 12:13:41;;;;;;;0.57;0.57;;;;;;;;;;1722304;79;26283;-42
2022/05/18 12:16:13;;;;;;;0.60;0.60;;;;;;;;;;1808394;79;26833;-47
2022/05/18 12:18:47;;;;;;;0.70;0.70;;;;;;;;;;1793170;79;26215;-59
2022/05/18 12:21:19;;;;;;;0.57;0.57;;;;;;;;;;1798931;79;26288;-52
2022/05/18 12:23:48;;;;;;;0.40;0.40;;;;;;;;;;1799908;79;26790;-53
2022/05/18 12:26:16;;;;;;;0.60;0.60;;;;;;;;;;1804016;79;26310;-59
2022/05/18 12:28:45;;;;;;;0.50;0.50;;;;;;;;;;1808059;78;26666;-61
2022/05/18 12:31:12;;;;;;;0.62;0.62;;;;;;;;;;1812357;79;26779;-63
2022/05/18 12:33:44;;;;;;;0.60;0.60;;;;;;;;;;1804165;79;26300;-55
2022/05/18 12:36:17;;;;;;;0.68;0.68;;;;;;;;;;1796794;79;26290;-59
2022/05/18 12:38:58;;;;;;;0.50;0.50;;;;;;;;;;1808303;78;26307;-48
2022/05/18 12:41:26;;;;;;;0.57;0.57;;;;;;;;;;1806377;79;26731;-51
2022/05/18 12:44:01;;;;;;;0.62;0.62;;;;;;;;;;1803716;79;26299;-50
2022/05/18 12:46:30;;;;;;;0.60;0.60;;;;;;;;;;1803034;79;26992;-46
2022/05/18 12:49:02;;;;;;;0.90;0.90;;;;;;;;;;1805873;79;26787;-49
2022/05/18 12:51:31;;;;;;;0.47;0.47;;;;;;;;;;1806063;79;26762;-46
2022/05/18 12:54:12;;;;;;;0.60;0.60;;;;;;;;;;1804767;79;26970;-48
2022/05/18 12:56:42;;;;;;;0.50;0.50;;;;;;;;;;1796774;79;26817;-46
2022/05/18 12:59:22;;;;;;;0.60;0.60;;;;;;;;;;1811088;79;26282;-46
2022/05/18 13:01:54;;;;;;;0.53;0.53;;;;;;;;;;1811322;79;26897;-51
2022/05/18 13:04:23;;;;;;;0.50;0.50;;;;;;;;;;1801620;78;26374;-55
2022/05/18 13:06:58;;;;;;;0.53;0.53;;;;;;;;;;1798451;79;26270;-51
2022/05/18 13:09:27;;;;;;;0.50;0.50;;;;;;;;;;1814072;78;26339;-53
2022/05/18 13:11:55;;;;;;;0.75;0.60;;;;;;;;;;1811649;78;26274;-53
2022/05/18 13:14:27;;;;;;;0.42;0.42;;;;;;;;;;1813444;79;26815;-48
2022/05/18 13:16:56;;;;;;;0.60;0.60;;;;;;;;;;1808064;78;26278;-52
2022/05/18 13:19:27;;;;;;;0.50;0.50;;;;;;;;;;1825623;78;26236;-46
2022/05/18 13:21:56;;;;;;;0.50;0.50;;;;;;;;;;1822094;77;26593;-52
2022/05/18 13:24:28;;;;;;;0.50;0.50;;;;;;;;;;1790203;80;26290;-50
2022/05/18 13:26:56;;;;;;;0.60;0.60;;;;;;;;;;1781333;79;26869;-42
2022/05/18 13:29:25;;;;;;;0.55;0.55;;;;;;;;;;1790127;79;26277;-49
2022/05/18 13:31:54;;;;;;;0.60;0.60;;;;;;;;;;1794790;79;26379;-51
2022/05/18 13:34:26;;;;;;;0.50;0.50;;;;;;;;;;1821870;78;26361;-56
2022/05/18 13:36:54;;;;;;;0.40;0.40;;;;;;;;;;1791095;79;26256;-50
2022/05/18 13:39:39;;;;;;;0.60;0.60;;;;;;;;;;1791272;79;26227;-48
2022/05/18 13:42:08;;;;;;;0.57;0.57;;;;;;;;;;1780944;79;26353;-52
2022/05/18 13:44:35;;;;;;;0.60;0.60;;;;;;;;;;1805573;78;26271;-47
2022/05/18 13:47:03;;;;;;;0.50;0.50;;;;;;;;;;1822596;78;26338;-57
2022/05/18 13:49:32;;;;;;;0.50;0.50;;;;;;;;;;1821366;78;27371;-52
2022/05/18 13:52:01;;;;;;;0.70;0.70;;;;;;;;;;1812516;78;29103;-47
2022/05/18 13:54:29;;;;;;;0.57;0.57;;;;;;;;;;1819459;78;26509;-51
2022/05/18 13:56:58;;;;;;;0.50;0.50;;;;;;;;;;1817538;78;26213;-55
2022/05/18 13:59:27;;;;;;;0.50;0.45;;;;;;;;;;1821355;77;26424;-57
2022/05/18 14:01:56;;;;;;;0.55;0.55;;;;;;;;;;1820492;78;26314;-45
2022/05/18 14:04:24;;;;;;;0.47;0.47;;;;;;;;;;1789385;79;26399;-45
2022/05/18 14:06:53;;;;;;;0.60;0.60;;;;;;;;;;1798722;78;28360;-45
2022/05/18 14:09:21;;;;;;;0.40;0.40;;;;;;;;;;1804708;79;26329;-46
2022/05/18 14:11:50;;;;;;;0.50;0.50;;;;;;;;;;1813728;78;26317;-67
2022/05/18 14:14:18;;;;;;;0.60;0.60;;;;;;;;;;1805942;79;26333;-47
2022/05/18 14:16:47;;;;;;;0.50;0.50;;;;;;;;;;1806387;79;26272;-48
2022/05/18 14:19:19;;;;;;;0.40;0.40;;;;;;;;;;1811864;79;26332;-51
2022/05/18 14:21:48;;;;;;;0.40;0.40;;;;;;;;;;1799694;78;26711;-53
2022/05/18 14:24:20;;;;;;;0.40;0.40;;;;;;;;;;1814113;79;26757;-53
2022/05/18 14:26:49;;;;;;;0.50;0.50;;;;;;;;;;1813010;78;26283;-53
2022/05/18 14:29:27;;;;;;;1.00;0.53;;;;;;;;;;1800985;79;28280;-43
2022/05/18 14:31:58;;;;;;;0.40;0.40;;;;;;;;;;1814580;79;26302;-44
2022/05/18 14:34:33;;;;;;;0.53;0.53;;;;;;;;;;1814222;79;26733;-49
2022/05/18 14:37:02;;;;;;;0.55;0.55;;;;;;;;;;1811242;79;26330;-47
2022/05/18 14:39:32;;;;;;;1.25;0.50;;;;;;;;;;1812535;78;26292;-49
2022/05/18 14:41:59;;;;;;;0.60;0.60;;;;;;;;;;1807322;79;27246;-52
2022/05/18 14:44:37;;;;;;;0.55;0.50;;;;;;;;;;1812292;79;26279;-50
2022/05/18 14:47:09;;;;;;;0.45;0.45;;;;;;;;;;1813821;78;26678;-48
2022/05/18 14:49:38;;;;;;;1.10;0.60;;;;;;;;;;1811366;79;26290;-52
2022/05/18 14:52:07;;;;;;;0.60;0.60;;;;;;;;;;1805292;79;26270;-50
2022/05/18 14:54:36;;;;;;;0.60;0.60;;;;;;;;;;1809908;79;26649;-53
2022/05/18 14:57:07;;;;;;;1.57;0.62;;;;;;;;;;1809177;78;25825;-53
2022/05/18 14:59:36;;;;;;;1.22;0.57;;;;;;;;;;1818166;77;26259;-48
2022/05/18 15:02:04;;;;;;;0.57;0.57;;;;;;;;;;1791178;79;26303;-53
2022/05/18 15:04:51;;;;;;;0.55;0.50;;;;;;;;;;1816789;78;26314;-51
2022/05/18 15:07:20;;;;;;;0.40;0.40;;;;;;;;;;1726678;81;26310;-54
2022/05/18 15:09:49;;;;;;;0.50;0.50;;;;;;;;;;1723427;83;26383;-52
2022/05/18 15:12:18;;;;;;;0.50;0.50;;;;;;;;;;1760579;80;26634;-49
2022/05/18 15:15:02;;;;;;;0.62;0.62;;;;;;;;;;1816218;78;26301;-50
2022/05/18 15:17:31;;;;;;;0.50;0.50;;;;;;;;;;1814063;78;26824;-51